createdAt,value
2016-10-08T00:01:11.264Z,930.63
2016-10-08T00:02:24.335Z,930.67
2016-10-08T00:03:37.552Z,930.67
2016-10-08T00:07:06.484Z,930.68
2016-10-08T00:08:20.092Z,930.7
2016-10-08T00:09:33.830Z,930.65
2016-10-08T00:10:47.625Z,930.65
2016-10-08T00:12:01.236Z,930.64
2016-10-08T00:13:14.917Z,930.63
2016-10-08T00:14:28.740Z,930.63
2016-10-08T00:15:42.370Z,930.66
2016-10-08T00:16:55.915Z,930.67
2016-10-08T00:18:08.514Z,930.71
2016-10-08T00:19:22.200Z,930.69
2016-10-08T00:20:36.088Z,930.74
2016-10-08T00:21:49.714Z,930.72
2016-10-08T00:23:03.402Z,930.72
2016-10-08T00:24:16.550Z,930.71
2016-10-08T00:25:30.178Z,930.7
2016-10-08T00:26:43.865Z,930.66
2016-10-08T00:27:57.508Z,930.71
2016-10-08T00:29:24.535Z,930.7
2016-10-08T00:30:38.177Z,930.72
2016-10-08T00:31:51.786Z,930.69
2016-10-08T00:33:05.798Z,930.75
2016-10-08T00:34:19.498Z,930.75
2016-10-08T00:35:32.618Z,930.75
2016-10-08T00:36:46.375Z,930.79
2016-10-08T00:38:00.028Z,930.82
2016-10-08T00:39:13.663Z,930.89
2016-10-08T00:40:27.276Z,930.87
2016-10-08T00:41:41.086Z,930.91
2016-10-08T00:42:54.700Z,930.96
2016-10-08T00:44:08.530Z,930.96
2016-10-08T00:45:22.188Z,930.98
2016-10-08T00:46:35.824Z,930.95
2016-10-08T00:47:49.485Z,930.94
2016-10-08T00:49:03.080Z,930.95
2016-10-08T00:50:16.687Z,930.93
2016-10-08T00:51:30.329Z,930.94
2016-10-08T00:52:43.955Z,930.95
2016-10-08T00:53:57.615Z,930.9
2016-10-08T00:55:11.248Z,930.93
2016-10-08T00:56:24.892Z,930.91
2016-10-08T00:57:38.582Z,930.94
2016-10-08T00:58:52.146Z,930.96
2016-10-08T01:00:06.041Z,930.94
2016-10-08T01:01:19.641Z,930.99
2016-10-08T01:02:33.024Z,931.02
2016-10-08T01:03:46.755Z,931.03
2016-10-08T01:05:00.324Z,931.04
2016-10-08T01:06:13.380Z,931.03
2016-10-08T01:07:27.096Z,931.02
2016-10-08T01:08:40.777Z,930.99
2016-10-08T01:09:54.459Z,931.02
2016-10-08T01:11:08.038Z,931.04
2016-10-08T01:12:21.681Z,931.03
2016-10-08T01:13:35.370Z,931.02
2016-10-08T01:14:48.982Z,931.02
2016-10-08T01:16:02.894Z,931.01
2016-10-08T01:17:16.593Z,931.01
2016-10-08T01:18:29.703Z,931.05
2016-10-08T01:19:43.148Z,931.04
2016-10-08T01:20:56.901Z,931.06
2016-10-08T01:22:10.659Z,931.05
2016-10-08T01:23:24.400Z,931.05
2016-10-08T01:24:38.069Z,931.01
2016-10-08T01:25:51.676Z,931
2016-10-08T01:27:05.392Z,931.03
2016-10-08T01:28:19.028Z,930.93
2016-10-08T01:29:32.567Z,930.91
2016-10-08T01:30:46.594Z,930.94
2016-10-08T01:32:00.199Z,930.92
2016-10-08T01:33:13.820Z,930.94
2016-10-08T01:34:27.472Z,930.92
2016-10-08T01:35:41.090Z,930.94
2016-10-08T01:36:54.739Z,930.93
2016-10-08T01:38:08.385Z,930.95
2016-10-08T01:39:22.028Z,930.93
2016-10-08T01:40:35.604Z,930.93
2016-10-08T01:41:49.237Z,930.89
2016-10-08T01:43:02.899Z,930.89
2016-10-08T01:44:16.655Z,930.87
2016-10-08T01:45:30.225Z,930.86
2016-10-08T01:46:43.957Z,930.83
2016-10-08T01:47:57.679Z,930.85
2016-10-08T01:49:10.751Z,930.84
2016-10-08T01:50:23.896Z,930.81
2016-10-08T01:51:37.597Z,930.86
2016-10-08T01:52:51.267Z,930.82
2016-10-08T01:54:04.914Z,930.8
2016-10-08T01:55:18.212Z,930.82
2016-10-08T01:56:31.965Z,930.84
2016-10-08T01:57:45.041Z,930.84
2016-10-08T01:58:58.770Z,930.79
2016-10-08T02:00:12.393Z,930.84
2016-10-08T02:01:26.020Z,930.79
2016-10-08T02:02:39.621Z,930.83
2016-10-08T02:03:53.495Z,930.78
2016-10-08T02:05:07.394Z,930.8
2016-10-08T02:06:21.314Z,930.77
2016-10-08T02:07:34.994Z,930.79
2016-10-08T02:08:48.723Z,930.82
2016-10-08T02:10:02.350Z,930.82
2016-10-08T02:11:15.951Z,930.82
2016-10-08T02:12:29.606Z,930.79
2016-10-08T02:13:43.606Z,930.83
2016-10-08T02:14:56.702Z,930.86
2016-10-08T02:16:10.626Z,930.87
2016-10-08T02:17:24.222Z,930.89
2016-10-08T02:18:37.915Z,930.87
2016-10-08T02:19:51.564Z,930.83
2016-10-08T02:21:05.225Z,930.78
2016-10-08T02:22:18.371Z,930.77
2016-10-08T02:23:32.082Z,930.79
2016-10-08T02:24:45.767Z,930.71
2016-10-08T02:25:58.846Z,930.77
2016-10-08T02:27:12.465Z,930.75
2016-10-08T02:28:26.125Z,930.78
2016-10-08T02:30:10.837Z,930.77
2016-10-08T02:31:24.490Z,930.78
2016-10-08T02:32:38.160Z,930.77
2016-10-08T02:33:51.149Z,930.81
2016-10-08T02:35:04.816Z,930.77
2016-10-08T02:36:18.496Z,930.74
2016-10-08T02:37:32.125Z,930.69
2016-10-08T02:38:45.756Z,930.72
2016-10-08T02:39:59.398Z,930.71
2016-10-08T02:41:13.053Z,930.65
2016-10-08T02:42:26.209Z,930.63
2016-10-08T02:43:39.847Z,930.63
2016-10-08T02:44:53.243Z,930.63
2016-10-08T02:46:06.903Z,930.62
2016-10-08T02:47:20.610Z,930.63
2016-10-08T02:48:34.241Z,930.58
2016-10-08T02:49:47.877Z,930.58
2016-10-08T02:51:01.488Z,930.56
2016-10-08T02:52:15.135Z,930.55
2016-10-08T02:53:28.685Z,930.57
2016-10-08T02:54:42.305Z,930.55
2016-10-08T02:55:55.990Z,930.52
2016-10-08T02:57:09.594Z,930.53
2016-10-08T02:58:23.203Z,930.52
2016-10-08T02:59:36.830Z,930.49
2016-10-08T03:00:50.511Z,930.49
2016-10-08T03:02:03.549Z,930.49
2016-10-08T03:03:17.137Z,930.49
2016-10-08T03:04:30.712Z,930.44
2016-10-08T03:05:44.300Z,930.44
2016-10-08T03:06:57.926Z,930.49
2016-10-08T03:08:11.221Z,930.48
2016-10-08T03:09:24.840Z,930.45
2016-10-08T03:10:38.471Z,930.49
2016-10-08T03:11:52.095Z,930.49
2016-10-08T03:13:05.777Z,930.5
2016-10-08T03:14:19.683Z,930.51
2016-10-08T03:15:33.362Z,930.48
2016-10-08T03:16:46.971Z,930.47
2016-10-08T03:18:00.599Z,930.48
2016-10-08T03:19:14.201Z,930.53
2016-10-08T03:20:27.794Z,930.6
2016-10-08T03:21:41.448Z,930.57
2016-10-08T03:22:55.047Z,930.61
2016-10-08T03:24:08.622Z,930.56
2016-10-08T03:25:21.737Z,930.53
2016-10-08T03:26:35.399Z,930.52
2016-10-08T03:27:49.038Z,930.58
2016-10-08T03:29:02.736Z,930.6
2016-10-08T03:30:16.674Z,930.59
2016-10-08T03:31:30.341Z,930.63
2016-10-08T03:32:43.947Z,930.64
2016-10-08T03:33:57.578Z,930.66
2016-10-08T03:35:10.782Z,930.68
2016-10-08T03:36:24.350Z,930.72
2016-10-08T03:37:38.016Z,930.68
2016-10-08T03:38:51.684Z,930.67
2016-10-08T03:40:05.285Z,930.63
2016-10-08T03:41:18.885Z,930.58
2016-10-08T03:42:32.499Z,930.58
2016-10-08T03:43:46.199Z,930.56
2016-10-08T03:44:59.850Z,930.53
2016-10-08T03:46:13.735Z,930.55
2016-10-08T03:47:26.776Z,930.52
2016-10-08T03:48:40.139Z,930.52
2016-10-08T03:49:53.228Z,930.51
2016-10-08T03:51:07.034Z,930.48
2016-10-08T03:52:20.713Z,930.45
2016-10-08T03:53:34.424Z,930.42
2016-10-08T03:54:48.044Z,930.41
2016-10-08T03:56:01.661Z,930.43
2016-10-08T03:57:15.259Z,930.43
2016-10-08T03:58:28.911Z,930.41
2016-10-08T03:59:42.569Z,930.35
2016-10-08T04:00:56.119Z,930.34
2016-10-08T04:02:09.847Z,930.31
2016-10-08T04:03:23.428Z,930.28
2016-10-08T04:04:37.063Z,930.24
2016-10-08T04:05:50.726Z,930.27
2016-10-08T04:07:04.269Z,930.22
2016-10-08T04:08:17.942Z,930.17
2016-10-08T04:09:45.528Z,930.17
2016-10-08T04:10:59.210Z,930.12
2016-10-08T04:12:12.745Z,930.1
2016-10-08T04:13:26.357Z,930.14
2016-10-08T04:14:39.967Z,930.07
2016-10-08T04:15:53.519Z,930.09
2016-10-08T04:17:07.557Z,930.1
2016-10-08T04:18:20.637Z,930.12
2016-10-08T04:19:34.249Z,930.13
2016-10-08T04:20:47.907Z,930.14
2016-10-08T04:22:01.519Z,930.12
2016-10-08T04:23:15.147Z,930.16
2016-10-08T04:24:28.766Z,930.17
2016-10-08T04:25:42.416Z,930.18
2016-10-08T04:26:56.244Z,930.13
2016-10-08T04:28:09.850Z,930.15
2016-10-08T04:29:23.500Z,930.13
2016-10-08T04:30:37.090Z,930.13
2016-10-08T04:31:50.680Z,930.1
2016-10-08T04:33:04.376Z,930.05
2016-10-08T04:34:16.945Z,930.02
2016-10-08T04:35:30.624Z,930.01
2016-10-08T04:36:44.204Z,929.97
2016-10-08T04:37:57.866Z,929.92
2016-10-08T04:39:10.913Z,929.92
2016-10-08T04:40:24.480Z,929.88
2016-10-08T04:41:38.159Z,929.86
2016-10-08T04:42:51.845Z,929.83
2016-10-08T04:44:05.552Z,929.8
2016-10-08T04:45:19.168Z,929.8
2016-10-08T04:46:32.806Z,929.79
2016-10-08T04:47:46.921Z,929.77
2016-10-08T04:49:00.497Z,929.75
2016-10-08T04:50:14.124Z,929.72
2016-10-08T04:51:27.751Z,929.69
2016-10-08T04:52:41.401Z,929.69
2016-10-08T04:53:55.008Z,929.68
2016-10-08T04:55:08.423Z,929.7
2016-10-08T04:56:22.071Z,929.7
2016-10-08T04:57:35.709Z,929.7
2016-10-08T04:58:49.340Z,929.75
2016-10-08T05:00:02.400Z,929.78
2016-10-08T05:01:16.042Z,929.76
2016-10-08T05:02:29.701Z,929.8
2016-10-08T05:03:43.789Z,929.81
2016-10-08T05:04:57.374Z,929.77
2016-10-08T05:06:10.957Z,929.75
2016-10-08T05:07:24.612Z,929.77
2016-10-08T05:08:37.747Z,929.79
2016-10-08T05:09:51.369Z,929.83
2016-10-08T05:11:05.624Z,929.83
2016-10-08T05:12:20.772Z,929.84
2016-10-08T05:13:34.394Z,929.81
2016-10-08T05:14:48.031Z,929.84
2016-10-08T05:16:01.732Z,929.81
2016-10-08T05:17:15.408Z,929.82
2016-10-08T05:18:29.077Z,929.8
2016-10-08T05:19:42.680Z,929.81
2016-10-08T05:20:56.287Z,929.8
2016-10-08T05:22:09.851Z,929.79
2016-10-08T05:23:23.491Z,929.83
2016-10-08T05:24:36.589Z,929.86
2016-10-08T05:25:50.275Z,929.9
2016-10-08T05:27:03.864Z,929.91
2016-10-08T05:28:17.457Z,929.95
2016-10-08T05:29:31.145Z,929.93
2016-10-08T05:30:44.793Z,929.99
2016-10-08T05:31:58.373Z,929.99
2016-10-08T05:33:11.542Z,929.97
2016-10-08T05:34:25.151Z,929.96
2016-10-08T05:35:38.772Z,929.98
2016-10-08T05:36:52.419Z,929.96
2016-10-08T05:38:06.534Z,929.99
2016-10-08T05:39:20.126Z,930.03
2016-10-08T05:40:33.814Z,930.03
2016-10-08T05:41:47.463Z,930.02
2016-10-08T05:43:01.011Z,929.99
2016-10-08T05:44:14.632Z,929.97
2016-10-08T05:45:28.264Z,930
2016-10-08T05:46:42.163Z,930
2016-10-08T05:47:56.924Z,930.04
2016-10-08T05:49:10.835Z,930.03
2016-10-08T05:50:24.475Z,930
2016-10-08T05:51:38.128Z,929.98
2016-10-08T05:52:51.765Z,930
2016-10-08T05:54:05.385Z,929.98
2016-10-08T05:55:19.022Z,929.97
2016-10-08T05:56:32.872Z,930.04
2016-10-08T05:57:46.944Z,930.03
2016-10-08T05:58:59.979Z,930.04
2016-10-08T06:00:13.837Z,930.06
2016-10-08T06:01:27.476Z,930.02
2016-10-08T06:02:40.872Z,930.08
2016-10-08T06:03:54.553Z,930.06
2016-10-08T06:05:08.260Z,930.03
2016-10-08T06:06:21.869Z,929.99
2016-10-08T06:07:35.520Z,930.03
2016-10-08T06:08:49.146Z,929.98
2016-10-08T06:10:02.725Z,930
2016-10-08T06:11:16.338Z,929.98
2016-10-08T06:12:30.045Z,929.97
2016-10-08T06:13:43.846Z,929.96
2016-10-08T06:14:57.235Z,929.9
2016-10-08T06:16:10.857Z,929.88
2016-10-08T06:17:24.484Z,929.88
2016-10-08T06:18:38.209Z,929.87
2016-10-08T06:19:51.888Z,929.86
2016-10-08T06:21:05.496Z,929.83
2016-10-08T06:22:19.127Z,929.84
2016-10-08T06:23:32.767Z,929.79
2016-10-08T06:24:47.039Z,929.8
2016-10-08T06:26:00.734Z,929.81
2016-10-08T06:27:14.375Z,929.78
2016-10-08T06:28:28.062Z,929.77
2016-10-08T06:29:41.635Z,929.74
2016-10-08T06:30:54.766Z,929.74
2016-10-08T06:32:08.392Z,929.73
2016-10-08T06:33:21.738Z,929.76
2016-10-08T06:34:35.403Z,929.76
2016-10-08T06:35:49.048Z,929.76
2016-10-08T06:37:02.875Z,929.81
2016-10-08T06:38:17.017Z,929.78
2016-10-08T06:39:30.455Z,929.8
2016-10-08T06:40:44.113Z,929.76
2016-10-08T06:41:57.231Z,929.77
2016-10-08T06:43:10.931Z,929.79
2016-10-08T06:44:24.675Z,929.75
2016-10-08T06:45:38.288Z,929.74
2016-10-08T06:46:51.866Z,929.73
2016-10-08T06:48:05.593Z,929.77
2016-10-08T06:49:18.714Z,929.74
2016-10-08T06:50:32.079Z,929.71
2016-10-08T06:51:45.675Z,929.68
2016-10-08T06:52:59.317Z,929.7
2016-10-08T06:54:12.997Z,929.69
2016-10-08T06:55:26.604Z,929.7
2016-10-08T06:56:40.692Z,929.7
2016-10-08T06:57:54.318Z,929.7
2016-10-08T06:59:07.936Z,929.71
2016-10-08T07:00:21.682Z,929.7
2016-10-08T07:01:35.286Z,929.67
2016-10-08T07:02:48.921Z,929.66
2016-10-08T07:04:02.773Z,929.72
2016-10-08T07:05:16.374Z,929.74
2016-10-08T07:06:29.980Z,929.77
2016-10-08T07:07:43.007Z,929.78
2016-10-08T07:08:56.631Z,929.81
2016-10-08T07:10:10.791Z,929.86
2016-10-08T07:11:24.408Z,929.91
2016-10-08T07:12:38.081Z,929.92
2016-10-08T07:13:51.750Z,929.92
2016-10-08T07:15:04.908Z,929.93
2016-10-08T07:16:18.468Z,929.94
2016-10-08T07:17:32.095Z,929.97
2016-10-08T07:18:45.676Z,930
2016-10-08T07:19:59.552Z,929.99
2016-10-08T07:21:13.140Z,930.03
2016-10-08T07:22:26.728Z,930.04
2016-10-08T07:23:40.833Z,930.1
2016-10-08T07:24:54.704Z,930.1
2016-10-08T07:26:08.323Z,930.09
2016-10-08T07:27:22.026Z,930.17
2016-10-08T07:28:35.595Z,930.15
2016-10-08T07:29:49.288Z,930.17
2016-10-08T07:31:02.923Z,930.15
2016-10-08T07:32:17.036Z,930.18
2016-10-08T07:33:30.657Z,930.21
2016-10-08T07:34:44.293Z,930.2
2016-10-08T07:35:58.033Z,930.19
2016-10-08T07:37:11.154Z,930.2
2016-10-08T07:38:24.828Z,930.23
2016-10-08T07:39:38.516Z,930.16
2016-10-08T07:40:52.115Z,930.19
2016-10-08T07:42:05.770Z,930.2
2016-10-08T07:43:18.809Z,930.23
2016-10-08T07:44:32.454Z,930.24
2016-10-08T07:45:46.026Z,930.26
2016-10-08T07:46:59.681Z,930.25
2016-10-08T07:48:13.244Z,930.28
2016-10-08T07:49:26.929Z,930.32
2016-10-08T07:50:40.059Z,930.3
2016-10-08T07:51:53.710Z,930.33
2016-10-08T07:53:07.723Z,930.31
2016-10-08T07:54:21.339Z,930.33
2016-10-08T07:55:34.990Z,930.31
2016-10-08T07:56:48.632Z,930.3
2016-10-08T07:58:02.299Z,930.3
2016-10-08T07:59:15.969Z,930.34
2016-10-08T08:00:29.675Z,930.29
2016-10-08T08:01:43.307Z,930.33
2016-10-08T08:02:56.956Z,930.29
2016-10-08T08:04:10.818Z,930.32
2016-10-08T08:05:24.478Z,930.36
2016-10-08T08:06:37.844Z,930.37
2016-10-08T08:07:51.520Z,930.39
2016-10-08T08:09:05.172Z,930.39
2016-10-08T08:10:18.750Z,930.41
2016-10-08T08:11:32.347Z,930.46
2016-10-08T08:12:46.011Z,930.44
2016-10-08T08:13:59.788Z,930.42
2016-10-08T08:15:13.867Z,930.4
2016-10-08T08:16:27.492Z,930.42
2016-10-08T08:17:41.195Z,930.43
2016-10-08T08:18:54.849Z,930.37
2016-10-08T08:20:08.197Z,930.43
2016-10-08T08:21:21.887Z,930.41
2016-10-08T08:22:35.518Z,930.44
2016-10-08T08:23:48.583Z,930.42
2016-10-08T08:25:02.202Z,930.43
2016-10-08T08:26:15.815Z,930.5
2016-10-08T08:27:29.395Z,930.46
2016-10-08T08:28:43.087Z,930.45
2016-10-08T08:31:41.473Z,930.47
2016-10-08T08:32:55.174Z,930.51
2016-10-08T08:34:08.761Z,930.53
2016-10-08T08:35:22.322Z,930.52
2016-10-08T08:36:35.970Z,930.54
2016-10-08T08:37:50.177Z,930.58
2016-10-08T08:39:03.872Z,930.55
2016-10-08T08:40:17.504Z,930.57
2016-10-08T08:41:31.158Z,930.56
2016-10-08T08:42:44.287Z,930.58
2016-10-08T08:43:57.883Z,930.61
2016-10-08T08:45:11.543Z,930.63
2016-10-08T08:46:25.204Z,930.64
2016-10-08T08:47:38.905Z,930.68
2016-10-08T08:48:52.181Z,930.66
2016-10-08T08:50:05.757Z,930.67
2016-10-08T08:51:19.531Z,930.68
2016-10-08T08:52:33.227Z,930.64
2016-10-08T08:53:47.081Z,930.67
2016-10-08T08:55:00.181Z,930.7
2016-10-08T08:56:13.933Z,930.7
2016-10-08T08:57:27.515Z,930.68
2016-10-08T08:58:41.114Z,930.66
2016-10-08T08:59:54.213Z,930.65
2016-10-08T09:01:07.955Z,930.68
2016-10-08T09:02:21.616Z,930.69
2016-10-08T09:03:35.296Z,930.67
2016-10-08T09:04:48.955Z,930.73
2016-10-08T09:06:02.570Z,930.71
2016-10-08T09:07:16.177Z,930.69
2016-10-08T09:08:29.332Z,930.71
2016-10-08T09:09:42.933Z,930.74
2016-10-08T09:10:56.172Z,930.75
2016-10-08T09:12:09.582Z,930.77
2016-10-08T09:13:22.703Z,930.78
2016-10-08T09:14:35.808Z,930.77
2016-10-08T09:15:49.400Z,930.82
2016-10-08T09:17:02.612Z,930.85
2016-10-08T09:18:16.257Z,930.82
2016-10-08T09:19:29.909Z,930.89
2016-10-08T09:20:44.040Z,930.86
2016-10-08T09:21:57.672Z,930.91
2016-10-08T09:23:11.292Z,930.96
2016-10-08T09:24:24.395Z,930.96
2016-10-08T09:25:37.500Z,930.96
2016-10-08T09:26:50.644Z,930.96
2016-10-08T09:28:03.214Z,930.99
2016-10-08T09:29:17.128Z,930.98
2016-10-08T09:30:30.751Z,930.98
2016-10-08T09:31:44.378Z,930.96
2016-10-08T09:32:56.914Z,930.94
2016-10-08T09:34:10.829Z,930.92
2016-10-08T09:35:24.530Z,930.93
2016-10-08T09:36:38.200Z,930.96
2016-10-08T09:37:51.339Z,930.93
2016-10-08T09:39:04.983Z,930.94
2016-10-08T09:40:18.580Z,930.98
2016-10-08T09:41:32.293Z,930.98
2016-10-08T09:42:45.915Z,931.01
2016-10-08T09:43:59.565Z,931.03
2016-10-08T09:45:12.613Z,931.07
2016-10-08T09:46:26.273Z,931.04
2016-10-08T09:47:40.157Z,931.03
2016-10-08T09:48:53.776Z,931.08
2016-10-08T09:50:06.894Z,931.06
2016-10-08T09:51:20.603Z,931.09
2016-10-08T09:52:33.719Z,931.09
2016-10-08T09:53:47.527Z,931.09
2016-10-08T09:55:01.112Z,931.11
2016-10-08T09:56:14.757Z,931.15
2016-10-08T09:57:27.946Z,931.14
2016-10-08T09:58:41.638Z,931.16
2016-10-08T09:59:55.231Z,931.16
2016-10-08T10:01:08.858Z,931.15
2016-10-08T10:02:22.507Z,931.17
2016-10-08T10:03:35.652Z,931.2
2016-10-08T10:04:48.709Z,931.19
2016-10-08T10:06:01.819Z,931.22
2016-10-08T10:07:15.546Z,931.24
2016-10-08T10:08:29.144Z,931.24
2016-10-08T10:09:42.761Z,931.25
2016-10-08T10:10:56.384Z,931.26
2016-10-08T10:12:09.542Z,931.3
2016-10-08T10:13:22.661Z,931.29
2016-10-08T10:14:35.771Z,931.29
2016-10-08T10:15:49.479Z,931.27
2016-10-08T10:17:03.103Z,931.28
2016-10-08T10:18:17.198Z,931.27
2016-10-08T10:19:30.342Z,931.32
2016-10-08T10:20:44.058Z,931.36
2016-10-08T10:21:57.658Z,931.39
2016-10-08T10:23:11.265Z,931.38
2016-10-08T10:24:24.412Z,931.4
2016-10-08T10:25:38.324Z,931.43
2016-10-08T10:26:51.970Z,931.41
2016-10-08T10:28:05.067Z,931.47
2016-10-08T10:29:18.197Z,931.46
2016-10-08T10:30:31.324Z,931.46
2016-10-08T10:31:44.757Z,931.47
2016-10-08T10:32:57.905Z,931.49
2016-10-08T10:34:11.554Z,931.53
2016-10-08T10:35:25.236Z,931.6
2016-10-08T10:36:38.901Z,931.58
2016-10-08T10:37:52.522Z,931.61
2016-10-08T10:39:06.138Z,931.64
2016-10-08T10:40:20.037Z,931.66
2016-10-08T10:41:33.705Z,931.65
2016-10-08T10:42:47.352Z,931.7
2016-10-08T10:44:00.929Z,931.7
2016-10-08T10:45:14.784Z,931.7
2016-10-08T10:46:27.793Z,931.76
2016-10-08T10:47:41.431Z,931.73
2016-10-08T10:48:55.121Z,931.76
2016-10-08T10:50:08.718Z,931.77
2016-10-08T10:51:22.311Z,931.76
2016-10-08T10:52:36.010Z,931.79
2016-10-08T10:53:49.627Z,931.75
2016-10-08T10:55:02.761Z,931.77
2016-10-08T10:56:16.416Z,931.76
2016-10-08T10:57:30.043Z,931.78
2016-10-08T10:58:43.962Z,931.77
2016-10-08T10:59:57.559Z,931.74
2016-10-08T11:01:11.249Z,931.74
2016-10-08T11:02:24.563Z,931.78
2016-10-08T11:03:38.183Z,931.79
2016-10-08T11:04:51.844Z,931.76
2016-10-08T11:06:05.559Z,931.83
2016-10-08T11:07:19.230Z,931.81
2016-10-08T11:08:32.860Z,931.84
2016-10-08T11:09:46.439Z,931.82
2016-10-08T11:10:58.971Z,931.82
2016-10-08T11:12:12.644Z,931.86
2016-10-08T11:13:25.728Z,931.86
2016-10-08T11:14:39.603Z,931.89
2016-10-08T11:15:53.221Z,931.85
2016-10-08T11:17:06.672Z,931.86
2016-10-08T11:18:20.291Z,931.84
2016-10-08T11:19:33.950Z,931.83
2016-10-08T11:20:47.345Z,931.84
2016-10-08T11:22:00.481Z,931.83
2016-10-08T11:23:14.170Z,931.83
2016-10-08T11:24:27.832Z,931.85
2016-10-08T11:25:41.395Z,931.88
2016-10-08T11:26:55.001Z,931.92
2016-10-08T11:28:08.581Z,931.92
2016-10-08T11:29:21.188Z,931.92
2016-10-08T11:30:34.828Z,931.92
2016-10-08T11:31:47.916Z,931.91
2016-10-08T11:33:01.593Z,931.89
2016-10-08T11:34:15.236Z,931.96
2016-10-08T11:35:28.597Z,931.97
2016-10-08T11:36:41.657Z,931.98
2016-10-08T11:37:55.323Z,931.99
2016-10-08T11:39:09.032Z,932.02
2016-10-08T11:40:21.599Z,932
2016-10-08T11:41:34.779Z,932.01
2016-10-08T11:42:48.447Z,931.97
2016-10-08T11:44:02.106Z,932.06
2016-10-08T11:45:15.722Z,932.03
2016-10-08T11:46:29.042Z,932.03
2016-10-08T11:47:42.619Z,932.05
2016-10-08T11:48:55.637Z,932.11
2016-10-08T11:50:08.291Z,932.08
2016-10-08T11:51:21.451Z,932.13
2016-10-08T11:52:34.815Z,932.14
2016-10-08T11:53:47.955Z,932.14
2016-10-08T11:55:01.651Z,932.15
2016-10-08T11:56:15.318Z,932.13
2016-10-08T11:57:28.960Z,932.2
2016-10-08T11:58:42.638Z,932.2
2016-10-08T11:59:56.297Z,932.21
2016-10-08T12:01:09.903Z,932.26
2016-10-08T12:02:23.604Z,932.3
2016-10-08T12:03:36.926Z,932.35
2016-10-08T12:04:50.245Z,932.36
2016-10-08T12:06:03.864Z,932.32
2016-10-08T12:07:17.490Z,932.36
2016-10-08T12:08:31.103Z,932.35
2016-10-08T12:09:44.811Z,932.35
2016-10-08T12:10:57.396Z,932.31
2016-10-08T12:12:11.047Z,932.34
2016-10-08T12:13:24.184Z,932.32
2016-10-08T12:14:37.904Z,932.33
2016-10-08T12:15:51.039Z,932.34
2016-10-08T12:17:04.735Z,932.34
2016-10-08T12:18:18.081Z,932.37
2016-10-08T12:19:31.720Z,932.37
2016-10-08T12:20:45.419Z,932.32
2016-10-08T12:21:59.088Z,932.33
2016-10-08T12:23:12.373Z,932.31
2016-10-08T12:24:26.003Z,932.31
2016-10-08T12:25:39.700Z,932.3
2016-10-08T12:26:53.362Z,932.27
2016-10-08T12:28:05.965Z,932.24
2016-10-08T12:29:19.572Z,932.23
2016-10-08T12:30:32.642Z,932.24
2016-10-08T12:31:46.343Z,932.28
2016-10-08T12:33:00.090Z,932.26
2016-10-08T12:34:14.153Z,932.27
2016-10-08T12:35:26.465Z,932.3
2016-10-08T12:36:39.890Z,932.3
2016-10-08T12:37:53.540Z,932.24
2016-10-08T12:39:07.182Z,932.25
2016-10-08T12:40:20.757Z,932.24
2016-10-08T12:41:34.434Z,932.22
2016-10-08T12:42:47.538Z,932.21
2016-10-08T12:44:01.210Z,932.2
2016-10-08T12:45:14.374Z,932.19
2016-10-08T12:46:28.043Z,932.16
2016-10-08T12:47:41.723Z,932.14
2016-10-08T12:48:55.314Z,932.15
2016-10-08T12:50:08.430Z,932.13
2016-10-08T12:51:22.074Z,932.15
2016-10-08T12:52:36.773Z,932.15
2016-10-08T12:53:50.464Z,932.15
2016-10-08T12:55:03.549Z,932.17
2016-10-08T12:56:17.045Z,932.16
2016-10-08T12:57:30.172Z,932.15
2016-10-08T12:58:44.226Z,932.13
2016-10-08T12:59:57.861Z,932.13
2016-10-08T13:01:11.104Z,932.12
2016-10-08T13:02:24.704Z,932.06
2016-10-08T13:03:38.018Z,932.08
2016-10-08T13:04:51.196Z,932.12
2016-10-08T13:06:04.567Z,932.11
2016-10-08T13:07:18.232Z,932.11
2016-10-08T13:08:31.886Z,932.13
2016-10-08T13:09:45.075Z,932.16
2016-10-08T13:10:58.665Z,932.16
2016-10-08T13:12:12.285Z,932.16
2016-10-08T13:13:24.565Z,932.1
2016-10-08T13:14:38.045Z,932.1
2016-10-08T13:15:51.715Z,932.1
2016-10-08T13:17:05.426Z,931.79
2016-10-08T13:18:19.241Z,931.77
2016-10-08T13:19:32.948Z,931.78
2016-10-08T13:20:46.660Z,931.74
2016-10-08T13:22:00.326Z,931.76
2016-10-08T13:23:14.269Z,931.76
2016-10-08T13:24:27.803Z,931.78
2016-10-08T13:25:41.445Z,931.74
2016-10-08T13:26:55.191Z,931.71
2016-10-08T13:28:08.937Z,931.76
2016-10-08T13:29:22.068Z,931.78
2016-10-08T13:30:35.687Z,931.76
2016-10-08T13:31:49.316Z,931.74
2016-10-08T13:33:03.034Z,931.76
2016-10-08T13:34:15.641Z,931.73
2016-10-08T13:35:29.293Z,931.77
2016-10-08T13:36:42.923Z,931.76
2016-10-08T13:37:56.603Z,931.75
2016-10-08T13:39:09.752Z,931.76
2016-10-08T13:40:22.840Z,931.74
2016-10-08T13:41:35.975Z,931.71
2016-10-08T13:42:49.091Z,931.72
2016-10-08T13:44:02.263Z,931.72
2016-10-08T13:45:15.400Z,931.78
2016-10-08T13:46:29.044Z,931.74
2016-10-08T13:47:42.716Z,931.73
2016-10-08T13:48:56.386Z,931.75
2016-10-08T13:50:10.068Z,931.76
2016-10-08T13:51:23.672Z,931.74
2016-10-08T13:52:36.238Z,931.74
2016-10-08T13:54:20.529Z,931.72
2016-10-08T13:55:34.170Z,931.67
2016-10-08T13:56:47.905Z,931.68
2016-10-08T13:58:01.006Z,931.68
2016-10-08T13:59:14.685Z,931.65
2016-10-08T14:00:28.543Z,931.65
2016-10-08T14:01:41.655Z,931.66
2016-10-08T14:03:26.389Z,931.69
2016-10-08T14:04:40.107Z,931.68
2016-10-08T14:05:52.694Z,931.7
2016-10-08T14:07:06.755Z,931.67
2016-10-08T14:08:19.879Z,931.61
2016-10-08T14:09:32.944Z,931.58
2016-10-08T14:10:46.573Z,931.57
2016-10-08T14:12:00.194Z,931.54
2016-10-08T14:13:13.506Z,931.52
2016-10-08T14:14:26.536Z,931.47
2016-10-08T14:15:40.245Z,931.5
2016-10-08T14:16:53.843Z,931.52
2016-10-08T14:18:07.159Z,931.55
2016-10-08T14:19:20.808Z,931.57
2016-10-08T14:20:34.552Z,931.6
2016-10-08T14:21:47.618Z,931.59
2016-10-08T14:23:01.330Z,931.52
2016-10-08T14:24:14.979Z,931.55
2016-10-08T14:25:28.167Z,931.52
2016-10-08T14:26:41.292Z,931.53
2016-10-08T14:27:54.434Z,931.52
2016-10-08T14:29:08.065Z,931.42
2016-10-08T14:30:21.121Z,931.51
2016-10-08T14:31:34.840Z,931.45
2016-10-08T14:32:48.754Z,931.52
2016-10-08T14:34:02.451Z,931.5
2016-10-08T14:35:16.102Z,931.52
2016-10-08T14:36:29.175Z,931.56
2016-10-08T14:37:42.357Z,931.45
2016-10-08T14:38:55.955Z,931.47
2016-10-08T14:40:09.821Z,931.51
2016-10-08T14:41:23.500Z,931.47
2016-10-08T14:42:37.140Z,931.58
2016-10-08T14:43:50.821Z,931.48
2016-10-08T14:45:04.460Z,931.49
2016-10-08T14:46:17.287Z,931.49
2016-10-08T14:47:30.912Z,931.51
2016-10-08T14:48:44.533Z,931.48
2016-10-08T14:49:58.209Z,931.48
2016-10-08T14:51:11.884Z,931.4
2016-10-08T14:52:26.227Z,931.34
2016-10-08T14:53:39.344Z,931.26
2016-10-08T14:54:52.925Z,931.27
2016-10-08T14:56:05.488Z,931.26
2016-10-08T14:57:18.065Z,931.27
2016-10-08T14:58:30.592Z,931.24
2016-10-08T14:59:44.516Z,931.24
2016-10-08T15:00:57.625Z,931.25
2016-10-08T15:02:10.131Z,931.27
2016-10-08T15:03:23.770Z,931.25
2016-10-08T15:04:37.425Z,931.21
2016-10-08T15:05:51.139Z,931.18
2016-10-08T15:07:04.770Z,931.14
2016-10-08T15:08:17.871Z,931.08
2016-10-08T15:09:31.505Z,931.04
2016-10-08T15:10:45.213Z,930.97
2016-10-08T15:11:58.862Z,931
2016-10-08T15:13:12.512Z,931.03
2016-10-08T15:14:26.118Z,930.87
2016-10-08T15:15:39.873Z,930.98
2016-10-08T15:16:53.002Z,931.03
2016-10-08T15:18:05.646Z,931.01
2016-10-08T15:19:18.798Z,930.98
2016-10-08T15:20:31.399Z,931
2016-10-08T15:21:45.037Z,931.01
2016-10-08T15:22:58.685Z,931.05
2016-10-08T15:24:12.505Z,931.01
2016-10-08T15:25:26.112Z,930.95
2016-10-08T15:26:39.808Z,930.88
2016-10-08T15:27:53.488Z,930.89